sensor_id;sensor_type;location;lat;lon;timestamp;pressure;altitude;pressure_sealevel;temperature;humidity
79127;BME280;68528;48.814;8.904;2023-04-08T00:01:04;96648.75;;;5.79;87.49
79127;BME280;68528;48.814;8.904;2023-04-08T00:03:30;96652.75;;;5.82;87.39
79127;BME280;68528;48.814;8.904;2023-04-08T00:05:56;96648.63;;;5.76;87.32
79127;BME280;68528;48.814;8.904;2023-04-08T00:08:42;96649.28;;;5.73;87.24
79127;BME280;68528;48.814;8.904;2023-04-08T00:14:40;96654.19;;;5.79;87.31
79127;BME280;68528;48.814;8.904;2023-04-08T00:17:06;96654.72;;;5.73;86.37
79127;BME280;68528;48.814;8.904;2023-04-08T00:19:33;96664.13;;;5.75;86.53
79127;BME280;68528;48.814;8.904;2023-04-08T00:21:59;96658.69;;;5.75;87.17
79127;BME280;68528;48.814;8.904;2023-04-08T00:24:26;96661.41;;;5.75;87.04
79127;BME280;68528;48.814;8.904;2023-04-08T00:26:52;96664.13;;;5.75;86.42
79127;BME280;68528;48.814;8.904;2023-04-08T00:29:39;96664.84;;;5.64;87.31
79127;BME280;68528;48.814;8.904;2023-04-08T00:32:34;96655.22;;;5.66;87.61
79127;BME280;68528;48.814;8.904;2023-04-08T00:35:22;96658.59;;;5.63;87.69
79127;BME280;68528;48.814;8.904;2023-04-08T00:37:52;96659.25;;;5.60;87.40
79127;BME280;68528;48.814;8.904;2023-04-08T00:40:18;96649.91;;;5.78;86.62
79127;BME280;68528;48.814;8.904;2023-04-08T00:42:44;96659.50;;;5.76;87.04
79127;BME280;68528;48.814;8.904;2023-04-08T00:45:10;96660.00;;;5.69;87.12
79127;BME280;68528;48.814;8.904;2023-04-08T00:47:37;96655.22;;;5.66;87.43
79127;BME280;68528;48.814;8.904;2023-04-08T00:50:06;96665.81;;;5.59;87.17
79127;BME280;68528;48.814;8.904;2023-04-08T00:52:41;96656.22;;;5.62;87.33
79127;BME280;68528;48.814;8.904;2023-04-08T00:55:07;96668.19;;;5.61;87.33
79127;BME280;68528;48.814;8.904;2023-04-08T00:57:32;96661.94;;;5.60;87.63
79127;BME280;68528;48.814;8.904;2023-04-08T00:59:58;96661.94;;;5.60;87.74
79127;BME280;68528;48.814;8.904;2023-04-08T01:05:06;96675.25;;;5.53;88.36
79127;BME280;68528;48.814;8.904;2023-04-08T01:07:40;96664.56;;;5.48;88.07
79127;BME280;68528;48.814;8.904;2023-04-08T01:10:25;96667.75;;;5.50;88.46
79127;BME280;68528;48.814;8.904;2023-04-08T01:12:55;96653.06;;;5.51;88.20
79127;BME280;68528;48.814;8.904;2023-04-08T01:15:23;96666.59;;;5.60;88.33
79127;BME280;68528;48.814;8.904;2023-04-08T01:17:56;96655.31;;;5.49;88.14
79127;BME280;68528;48.814;8.904;2023-04-08T01:20:24;96660.25;;;5.47;88.46
79127;BME280;68528;48.814;8.904;2023-04-08T01:29:16;96662.00;;;5.43;88.55
79127;BME280;68528;48.814;8.904;2023-04-08T01:31:43;96661.50;;;5.49;87.72
79127;BME280;68528;48.814;8.904;2023-04-08T01:34:14;96665.88;;;5.42;88.23
79127;BME280;68528;48.814;8.904;2023-04-08T01:36:47;96665.03;;;5.50;88.25
79127;BME280;68528;48.814;8.904;2023-04-08T01:40:22;96666.00;;;5.45;88.35
79127;BME280;68528;48.814;8.904;2023-04-08T01:52:40;96665.56;;;5.35;87.86
79127;BME280;68528;48.814;8.904;2023-04-08T01:55:56;96657.44;;;5.26;88.81
79127;BME280;68528;48.814;8.904;2023-04-08T02:01:37;96657.44;;;5.26;88.39
79127;BME280;68528;48.814;8.904;2023-04-08T02:04:33;96659.69;;;5.24;88.52
79127;BME280;68528;48.814;8.904;2023-04-08T02:07:03;96657.75;;;5.25;88.48
79127;BME280;68528;48.814;8.904;2023-04-08T02:09:30;96653.63;;;5.19;88.31
79127;BME280;68528;48.814;8.904;2023-04-08T02:11:56;96661.78;;;5.19;87.85
79127;BME280;68528;48.814;8.904;2023-04-08T02:14:23;96658.72;;;5.20;88.64
79127;BME280;68528;48.814;8.904;2023-04-08T02:16:58;96646.94;;;5.16;89.12
79127;BME280;68528;48.814;8.904;2023-04-08T02:19:29;96660.34;;;5.21;88.73
79127;BME280;68528;48.814;8.904;2023-04-08T02:22:09;96655.22;;;5.20;88.15
79127;BME280;68528;48.814;8.904;2023-04-08T02:24:38;96650.91;;;5.19;88.98
79127;BME280;68528;48.814;8.904;2023-04-08T02:27:04;96656.69;;;5.17;88.72
79127;BME280;68528;48.814;8.904;2023-04-08T02:29:33;96661.47;;;5.12;88.58
79127;BME280;68528;48.814;8.904;2023-04-08T02:32:02;96659.09;;;5.10;88.31
79127;BME280;68528;48.814;8.904;2023-04-08T02:34:30;96653.50;;;5.07;88.16
79127;BME280;68528;48.814;8.904;2023-04-08T02:36:58;96650.47;;;5.08;88.86
79127;BME280;68528;48.814;8.904;2023-04-08T02:39:49;96657.16;;;5.11;88.19
79127;BME280;68528;48.814;8.904;2023-04-08T02:42:19;96654.25;;;5.16;88.17
79127;BME280;68528;48.814;8.904;2023-04-08T02:45:04;96657.16;;;5.11;88.51
79127;BME280;68528;48.814;8.904;2023-04-08T02:47:32;96665.13;;;5.16;88.61
79127;BME280;68528;48.814;8.904;2023-04-08T02:49:57;96659.88;;;5.11;88.64
79127;BME280;68528;48.814;8.904;2023-04-08T02:52:24;96662.91;;;5.09;88.18
79127;BME280;68528;48.814;8.904;2023-04-08T02:55:09;96665.78;;;5.13;87.59
79127;BME280;68528;48.814;8.904;2023-04-08T02:57:41;96666.91;;;5.12;87.82
79127;BME280;68528;48.814;8.904;2023-04-08T03:00:30;96662.91;;;5.09;87.74
79127;BME280;68528;48.814;8.904;2023-04-08T03:06:23;96659.09;;;5.10;87.27
79127;BME280;68528;48.814;8.904;2023-04-08T03:08:48;96659.88;;;5.11;87.42
79127;BME280;68528;48.814;8.904;2023-04-08T03:11:13;96657.47;;;5.09;86.96
79127;BME280;68528;48.814;8.904;2023-04-08T03:20:23;96663.72;;;5.10;87.49
79127;BME280;68528;48.814;8.904;2023-04-08T03:22:49;96665.13;;;5.16;87.42
79127;BME280;68528;48.814;8.904;2023-04-08T03:25:14;96667.84;;;5.16;87.20
79127;BME280;68528;48.814;8.904;2023-04-08T03:27:40;96667.84;;;5.16;87.58
79127;BME280;68528;48.814;8.904;2023-04-08T03:30:06;96661.94;;;5.14;87.38
79127;BME280;68528;48.814;8.904;2023-04-08T03:35:55;96651.91;;;5.06;87.63
79127;BME280;68528;48.814;8.904;2023-04-08T03:38:21;96666.75;;;5.08;87.32
79127;BME280;68528;48.814;8.904;2023-04-08T03:41:22;96672.03;;;5.05;87.51
79127;BME280;68528;48.814;8.904;2023-04-08T03:43:48;96664.06;;;5.00;87.33
79127;BME280;68528;48.814;8.904;2023-04-08T03:46:13;96674.91;;;5.00;88.20
79127;BME280;68528;48.814;8.904;2023-04-08T03:48:39;96666.16;;;4.94;87.89
79127;BME280;68528;48.814;8.904;2023-04-08T03:51:04;96667.09;;;5.07;88.09
79127;BME280;68528;48.814;8.904;2023-04-08T03:53:52;96681.63;;;5.02;88.00
79127;BME280;68528;48.814;8.904;2023-04-08T03:56:18;96670.28;;;5.00;88.52
79127;BME280;68528;48.814;8.904;2023-04-08T03:58:53;96673.47;;;5.02;88.42
79127;BME280;68528;48.814;8.904;2023-04-08T04:01:21;96670.59;;;4.99;88.13
79127;BME280;68528;48.814;8.904;2023-04-08T04:03:51;96671.72;;;4.98;88.26
79127;BME280;68528;48.814;8.904;2023-04-08T04:06:16;96672.50;;;5.07;88.39
79127;BME280;68528;48.814;8.904;2023-04-08T04:08:44;96665.16;;;5.07;88.20
79127;BME280;68528;48.814;8.904;2023-04-08T04:11:39;96664.50;;;5.10;88.82
79127;BME280;68528;48.814;8.904;2023-04-08T04:14:10;96670.56;;;5.07;88.38
79127;BME280;68528;48.814;8.904;2023-04-08T04:17:05;96670.44;;;5.04;88.20
79127;BME280;68528;48.814;8.904;2023-04-08T04:19:30;96673.28;;;4.99;88.21
79127;BME280;68528;48.814;8.904;2023-04-08T04:22:21;96673.63;;;5.06;88.22
79127;BME280;68528;48.814;8.904;2023-04-08T04:24:49;96672.50;;;5.07;88.89
79127;BME280;68528;48.814;8.904;2023-04-08T04:37:45;96683.19;;;5.03;89.05
79127;BME280;68528;48.814;8.904;2023-04-08T04:46:05;96684.34;;;4.94;89.51
79127;BME280;68528;48.814;8.904;2023-04-08T04:51:30;96688.94;;;5.02;88.87
79127;BME280;68528;48.814;8.904;2023-04-08T04:53:57;96692.78;;;5.01;88.26
79127;BME280;68528;48.814;8.904;2023-04-08T04:56:24;96693.91;;;5.00;88.51
79127;BME280;68528;48.814;8.904;2023-04-08T04:58:51;96686.38;;;5.05;88.19
79127;BME280;68528;48.814;8.904;2023-04-08T05:01:16;96689.59;;;4.99;88.65
79127;BME280;68528;48.814;8.904;2023-04-08T05:03:42;96691.81;;;4.97;88.14
79127;BME280;68528;48.814;8.904;2023-04-08T05:06:08;96692.94;;;4.96;88.29
79127;BME280;68528;48.814;8.904;2023-04-08T05:09:00;96697.25;;;4.88;88.35
79127;BME280;68528;48.814;8.904;2023-04-08T05:11:25;96693.28;;;4.86;88.99
79127;BME280;68528;48.814;8.904;2023-04-08T05:13:51;96692.16;;;4.78;88.73
79127;BME280;68528;48.814;8.904;2023-04-08T05:16:16;96691.34;;;4.77;89.19
79127;BME280;68528;48.814;8.904;2023-04-08T05:18:42;96700.16;;;4.74;88.74
79127;BME280;68528;48.814;8.904;2023-04-08T05:21:07;96697.75;;;4.73;88.78
79127;BME280;68528;48.814;8.904;2023-04-08T05:23:37;96709.88;;;4.75;88.53
79127;BME280;68528;48.814;8.904;2023-04-08T05:29:35;96706.19;;;4.80;88.76
79127;BME280;68528;48.814;8.904;2023-04-08T05:32:21;96704.28;;;4.81;89.26
79127;BME280;68528;48.814;8.904;2023-04-08T05:34:47;96700.78;;;4.89;89.11
79127;BME280;68528;48.814;8.904;2023-04-08T05:37:14;96701.91;;;4.88;89.34
79127;BME280;68528;48.814;8.904;2023-04-08T05:39:39;96708.44;;;4.87;89.25
79127;BME280;68528;48.814;8.904;2023-04-08T05:42:13;96709.09;;;4.84;88.70
79127;BME280;68528;48.814;8.904;2023-04-08T05:44:42;96714.81;;;4.91;89.47
79127;BME280;68528;48.814;8.904;2023-04-08T05:47:29;96716.41;;;5.00;88.40
79127;BME280;68528;48.814;8.904;2023-04-08T05:49:58;96709.84;;;5.01;88.38
79127;BME280;68528;48.814;8.904;2023-04-08T05:52:24;96719.63;;;5.02;88.04
79127;BME280;68528;48.814;8.904;2023-04-08T05:54:49;96727.56;;;5.16;87.64
79127;BME280;68528;48.814;8.904;2023-04-08T05:57:15;96729.81;;;5.14;88.40
79127;BME280;68528;48.814;8.904;2023-04-08T06:03:04;96733.66;;;5.21;87.46
79127;BME280;68528;48.814;8.904;2023-04-08T06:05:53;96731.09;;;5.08;88.05
79127;BME280;68528;48.814;8.904;2023-04-08T06:11:23;96744.81;;;5.20;87.88
79127;BME280;68528;48.814;8.904;2023-04-08T06:13:48;96742.41;;;5.18;87.24
79127;BME280;68528;48.814;8.904;2023-04-08T06:16:15;96739.56;;;5.15;87.91
79127;BME280;68528;48.814;8.904;2023-04-08T06:22:05;96757.28;;;5.12;87.36
79127;BME280;68528;48.814;8.904;2023-04-08T06:24:30;96747.69;;;5.15;87.80
79127;BME280;68528;48.814;8.904;2023-04-08T06:26:56;96752.47;;;5.18;88.02
79127;BME280;68528;48.814;8.904;2023-04-08T06:29:29;96752.16;;;5.28;86.89
79127;BME280;68528;48.814;8.904;2023-04-08T06:31:55;96751.50;;;5.31;86.35
79127;BME280;68528;48.814;8.904;2023-04-08T06:34:23;96750.53;;;5.35;86.53
79127;BME280;68528;48.814;8.904;2023-04-08T06:36:48;96758.34;;;5.45;86.36
79127;BME280;68528;48.814;8.904;2023-04-08T06:39:14;96763.16;;;5.48;86.01
79127;BME280;68528;48.814;8.904;2023-04-08T06:41:41;96765.84;;;5.66;85.37
79127;BME280;68528;48.814;8.904;2023-04-08T06:44:07;96765.34;;;5.64;86.14
79127;BME280;68528;48.814;8.904;2023-04-08T06:46:34;96759.72;;;5.69;85.73
79127;BME280;68528;48.814;8.904;2023-04-08T06:49:01;96765.81;;;5.74;85.89
79127;BME280;68528;48.814;8.904;2023-04-08T06:51:28;96774.25;;;5.81;85.07
79127;BME280;68528;48.814;8.904;2023-04-08T06:54:15;96767.38;;;5.75;85.19
79127;BME280;68528;48.814;8.904;2023-04-08T06:56:40;96768.34;;;5.79;84.73
79127;BME280;68528;48.814;8.904;2023-04-08T06:59:07;96770.25;;;5.87;84.32
79127;BME280;68528;48.814;8.904;2023-04-08T07:01:33;96773.31;;;5.86;84.30
79127;BME280;68528;48.814;8.904;2023-04-08T07:03:59;96768.00;;;5.89;84.42
79127;BME280;68528;48.814;8.904;2023-04-08T07:06:28;96775.19;;;5.94;84.20
79127;BME280;68528;48.814;8.904;2023-04-08T07:08:53;96772.31;;;5.99;84.08
79127;BME280;68528;48.814;8.904;2023-04-08T07:11:18;96780.44;;;6.07;84.51
79127;BME280;68528;48.814;8.904;2023-04-08T07:13:51;96777.34;;;6.17;84.39
79127;BME280;68528;48.814;8.904;2023-04-08T07:16:17;96772.56;;;6.14;83.69
79127;BME280;68528;48.814;8.904;2023-04-08T07:18:42;96782.78;;;6.17;83.73
79127;BME280;68528;48.814;8.904;2023-04-08T07:21:11;96781.38;;;6.11;83.98
79127;BME280;68528;48.814;8.904;2023-04-08T07:24:22;96784.38;;;6.18;83.94
79127;BME280;68528;48.814;8.904;2023-04-08T07:27:10;96793.19;;;6.15;83.63
79127;BME280;68528;48.814;8.904;2023-04-08T07:29:36;96788.41;;;6.12;83.10
79127;BME280;68528;48.814;8.904;2023-04-08T07:32:01;96794.19;;;6.02;83.90
79127;BME280;68528;48.814;8.904;2023-04-08T07:34:27;96795.00;;;6.03;84.04
79127;BME280;68528;48.814;8.904;2023-04-08T07:36:53;96798.03;;;6.01;83.62
79127;BME280;68528;48.814;8.904;2023-04-08T07:39:19;96802.66;;;6.09;83.44
79127;BME280;68528;48.814;8.904;2023-04-08T07:41:46;96804.88;;;6.16;83.59
79127;BME280;68528;48.814;8.904;2023-04-08T07:44:11;96806.44;;;6.17;83.21
79127;BME280;68528;48.814;8.904;2023-04-08T07:46:38;96799.09;;;6.17;83.33
79127;BME280;68528;48.814;8.904;2023-04-08T07:49:03;96792.81;;;6.25;82.88
79127;BME280;68528;48.814;8.904;2023-04-08T07:51:53;96807.47;;;6.42;82.74
79127;BME280;68528;48.814;8.904;2023-04-08T07:54:49;96798.09;;;6.60;81.97
79127;BME280;68528;48.814;8.904;2023-04-08T07:57:32;96801.22;;;6.70;81.83
79127;BME280;68528;48.814;8.904;2023-04-08T08:00:00;96806.44;;;6.84;80.88
79127;BME280;68528;48.814;8.904;2023-04-08T08:02:28;96802.53;;;6.93;80.47
79127;BME280;68528;48.814;8.904;2023-04-08T08:04:54;96809.63;;;7.06;80.94
79127;BME280;68528;48.814;8.904;2023-04-08T08:07:20;96805.97;;;7.23;80.55
79127;BME280;68528;48.814;8.904;2023-04-08T08:16:15;96801.63;;;7.63;77.07
79127;BME280;68528;48.814;8.904;2023-04-08T08:18:40;96805.69;;;7.57;77.34
79127;BME280;68528;48.814;8.904;2023-04-08T08:21:27;96810.06;;;7.70;76.41
79127;BME280;68528;48.814;8.904;2023-04-08T08:23:56;96821.78;;;7.50;76.19
79127;BME280;68528;48.814;8.904;2023-04-08T08:26:50;96818.97;;;7.59;76.80
79127;BME280;68528;48.814;8.904;2023-04-08T08:29:43;96819.66;;;7.56;75.30
79127;BME280;68528;48.814;8.904;2023-04-08T08:32:12;96817.28;;;7.34;77.11
79127;BME280;68528;48.814;8.904;2023-04-08T08:34:37;96811.34;;;7.52;76.47
79127;BME280;68528;48.814;8.904;2023-04-08T08:37:03;96820.78;;;7.55;76.37
79127;BME280;68528;48.814;8.904;2023-04-08T08:39:29;96822.09;;;7.69;75.24
79127;BME280;68528;48.814;8.904;2023-04-08T08:41:55;96827.06;;;7.67;74.85
79127;BME280;68528;48.814;8.904;2023-04-08T08:48:13;96835.13;;;7.97;73.35
79127;BME280;68528;48.814;8.904;2023-04-08T08:50:39;96832.75;;;8.40;73.01
79127;BME280;68528;48.814;8.904;2023-04-08T08:53:04;96825.50;;;8.80;72.48
79127;BME280;68528;48.814;8.904;2023-04-08T08:55:33;96826.38;;;8.96;68.87
79127;BME280;68528;48.814;8.904;2023-04-08T08:58:00;96836.19;;;8.97;68.44
79127;BME280;68528;48.814;8.904;2023-04-08T09:00:41;96838.88;;;9.09;68.80
79127;BME280;68528;48.814;8.904;2023-04-08T09:10:08;96840.63;;;10.09;62.14
79127;BME280;68528;48.814;8.904;2023-04-08T09:13:10;96832.41;;;9.81;63.92
79127;BME280;68528;48.814;8.904;2023-04-08T09:16:18;96828.66;;;9.86;65.10
79127;BME280;68528;48.814;8.904;2023-04-08T09:18:47;96839.06;;;10.23;63.61
79127;BME280;68528;48.814;8.904;2023-04-08T09:28:20;96842.81;;;10.47;61.94
79127;BME280;68528;48.814;8.904;2023-04-08T09:30:46;96837.16;;;10.55;62.00
79127;BME280;68528;48.814;8.904;2023-04-08T09:33:15;96838.47;;;10.61;61.85
79127;BME280;68528;48.814;8.904;2023-04-08T09:35:45;96827.44;;;10.58;61.86
79127;BME280;68528;48.814;8.904;2023-04-08T09:38:29;96842.50;;;10.98;58.46
79127;BME280;68528;48.814;8.904;2023-04-08T11:33:47;96851.16;;;9.27;57.51
79127;BME280;68528;48.814;8.904;2023-04-08T11:36:44;96844.78;;;9.23;57.00
79127;BME280;68528;48.814;8.904;2023-04-08T11:39:10;96849.44;;;9.23;58.68
79127;BME280;68528;48.814;8.904;2023-04-08T11:41:39;96853.44;;;9.37;57.49
79127;BME280;68528;48.814;8.904;2023-04-08T11:44:04;96848.41;;;9.39;55.26
79127;BME280;68528;48.814;8.904;2023-04-08T11:46:31;96851.59;;;9.41;57.08
79127;BME280;68528;48.814;8.904;2023-04-08T11:48:58;96840.66;;;9.41;55.82
79127;BME280;68528;48.814;8.904;2023-04-08T11:51:59;96843.84;;;9.43;57.27
79127;BME280;68528;48.814;8.904;2023-04-08T11:54:39;96824.88;;;9.50;54.46
79127;BME280;68528;48.814;8.904;2023-04-08T11:57:06;96835.88;;;9.38;53.94
79127;BME280;68528;48.814;8.904;2023-04-08T11:59:35;96843.41;;;9.29;55.14
79127;BME280;68528;48.814;8.904;2023-04-08T12:02:02;96838.66;;;9.14;54.48
79127;BME280;68528;48.814;8.904;2023-04-08T12:04:27;96845.50;;;8.96;55.04
79127;BME280;68528;48.814;8.904;2023-04-08T12:06:54;96845.97;;;8.86;56.20
79127;BME280;68528;48.814;8.904;2023-04-08T12:12:13;96852.34;;;8.90;57.05
79127;BME280;68528;48.814;8.904;2023-04-08T12:15:03;96849.84;;;8.97;56.94
79127;BME280;68528;48.814;8.904;2023-04-08T12:17:33;96840.63;;;9.02;57.41
79127;BME280;68528;48.814;8.904;2023-04-08T12:20:00;96839.00;;;9.01;57.63
79127;BME280;68528;48.814;8.904;2023-04-08T12:22:26;96845.84;;;9.07;57.39
79127;BME280;68528;48.814;8.904;2023-04-08T12:24:52;96851.31;;;8.83;56.93
79127;BME280;68528;48.814;8.904;2023-04-08T12:27:37;96854.97;;;8.87;58.53
79127;BME280;68528;48.814;8.904;2023-04-08T12:30:08;96856.56;;;8.76;57.39
79127;BME280;68528;48.814;8.904;2023-04-08T12:33:15;96854.63;;;8.76;57.66
79127;BME280;68528;48.814;8.904;2023-04-08T12:35:41;96853.38;;;8.74;57.94
79127;BME280;68528;48.814;8.904;2023-04-08T12:38:10;96853.47;;;8.77;57.73
79127;BME280;68528;48.814;8.904;2023-04-08T12:40:35;96846.88;;;8.90;58.00
79127;BME280;68528;48.814;8.904;2023-04-08T12:43:01;96846.41;;;8.88;57.88
79127;BME280;68528;48.814;8.904;2023-04-08T12:45:26;96843.56;;;8.97;58.56
79127;BME280;68528;48.814;8.904;2023-04-08T12:53:53;96853.69;;;9.08;57.05
79127;BME280;68528;48.814;8.904;2023-04-08T13:17:56;96835.75;;;9.75;53.78
79127;BME280;68528;48.814;8.904;2023-04-08T13:27:52;96837.59;;;9.71;53.09
79127;BME280;68528;48.814;8.904;2023-04-08T13:30:44;96840.25;;;9.55;53.24
79127;BME280;68528;48.814;8.904;2023-04-08T13:33:46;96841.88;;;9.56;54.76
79127;BME280;68528;48.814;8.904;2023-04-08T13:36:14;96832.19;;;9.59;52.48
79127;BME280;68528;48.814;8.904;2023-04-08T13:39:01;96834.09;;;9.58;54.21
79127;BME280;68528;48.814;8.904;2023-04-08T13:45:39;96842.44;;;9.49;54.04
79127;BME280;68528;48.814;8.904;2023-04-08T13:48:06;96833.59;;;9.40;53.26
79127;BME280;68528;48.814;8.904;2023-04-08T13:50:32;96838.16;;;9.36;54.03
79127;BME280;68528;48.814;8.904;2023-04-08T13:52:58;96847.28;;;9.28;54.76
79127;BME280;68528;48.814;8.904;2023-04-08T13:55:23;96841.66;;;9.49;53.83
79127;BME280;68528;48.814;8.904;2023-04-08T16:14:35;96892.72;;;8.73;58.79
79127;BME280;68528;48.814;8.904;2023-04-08T16:56:50;96920.47;;;7.97;62.33
79127;BME280;68528;48.814;8.904;2023-04-08T16:59:16;96930.13;;;7.94;63.10
79127;BME280;68528;48.814;8.904;2023-04-08T17:02:25;96927.34;;;7.82;64.37
79127;BME280;68528;48.814;8.904;2023-04-08T17:05:22;96940.56;;;7.72;66.51
79127;BME280;68528;48.814;8.904;2023-04-08T17:08:09;96931.88;;;7.58;65.61
79127;BME280;68528;48.814;8.904;2023-04-08T17:11:05;96928.81;;;7.59;65.53
79127;BME280;68528;48.814;8.904;2023-04-08T17:13:31;96945.44;;;7.66;65.14
79127;BME280;68528;48.814;8.904;2023-04-08T17:15:57;96937.56;;;7.65;65.75
79127;BME280;68528;48.814;8.904;2023-04-08T17:18:22;96940.63;;;7.63;66.07
79127;BME280;68528;48.814;8.904;2023-04-08T17:24:22;96949.16;;;7.62;66.20
79127;BME280;68528;48.814;8.904;2023-04-08T17:27:16;96959.66;;;7.51;67.00
79127;BME280;68528;48.814;8.904;2023-04-08T17:29:41;96943.69;;;7.41;66.85
79127;BME280;68528;48.814;8.904;2023-04-08T17:32:07;96953.50;;;7.34;67.33
79127;BME280;68528;48.814;8.904;2023-04-08T17:34:53;96955.63;;;7.28;67.50
79127;BME280;68528;48.814;8.904;2023-04-08T17:37:23;96960.75;;;7.30;67.52
79127;BME280;68528;48.814;8.904;2023-04-08T17:39:49;96962.66;;;7.29;67.48
79127;BME280;68528;48.814;8.904;2023-04-08T17:42:46;96963.97;;;7.23;68.14
79127;BME280;68528;48.814;8.904;2023-04-08T17:45:30;96961.81;;;7.08;68.26
79127;BME280;68528;48.814;8.904;2023-04-08T17:47:55;96952.66;;;7.12;68.35
79127;BME280;68528;48.814;8.904;2023-04-08T17:50:32;96968.88;;;7.09;68.59
79127;BME280;68528;48.814;8.904;2023-04-08T17:52:58;96967.25;;;7.08;69.08
79127;BME280;68528;48.814;8.904;2023-04-08T17:55:24;96968.94;;;6.92;69.03
79127;BME280;68528;48.814;8.904;2023-04-08T17:58:14;96977.00;;;6.80;70.26
79127;BME280;68528;48.814;8.904;2023-04-08T18:04:31;96976.81;;;6.85;70.19
79127;BME280;68528;48.814;8.904;2023-04-08T18:07:05;96973.13;;;6.81;70.81
79127;BME280;68528;48.814;8.904;2023-04-08T18:10:47;96971.41;;;6.68;70.80
79127;BME280;68528;48.814;8.904;2023-04-08T18:16:43;96986.75;;;6.81;70.92
79127;BME280;68528;48.814;8.904;2023-04-08T18:20:06;96991.72;;;6.79;70.71
79127;BME280;68528;48.814;8.904;2023-04-08T18:22:32;96997.00;;;6.84;70.60
79127;BME280;68528;48.814;8.904;2023-04-08T18:24:57;97001.31;;;6.85;70.32
79127;BME280;68528;48.814;8.904;2023-04-08T18:27:23;97001.63;;;6.83;70.43
79127;BME280;68528;48.814;8.904;2023-04-08T18:29:50;97012.66;;;6.87;70.52
79127;BME280;68528;48.814;8.904;2023-04-08T18:32:17;97014.63;;;6.78;71.24
79127;BME280;68528;48.814;8.904;2023-04-08T18:38:17;97018.13;;;6.78;71.05
79127;BME280;68528;48.814;8.904;2023-04-08T18:41:09;97013.50;;;6.79;71.36
79127;BME280;68528;48.814;8.904;2023-04-08T18:43:35;97009.50;;;6.76;70.95
79127;BME280;68528;48.814;8.904;2023-04-08T18:46:01;97020.09;;;6.78;71.41
79127;BME280;68528;48.814;8.904;2023-04-08T18:48:28;97012.72;;;6.70;71.34
79127;BME280;68528;48.814;8.904;2023-04-08T18:50:54;97028.88;;;6.75;71.47
79127;BME280;68528;48.814;8.904;2023-04-08T19:14:10;97039.47;;;6.51;72.13
79127;BME280;68528;48.814;8.904;2023-04-08T19:16:36;97049.72;;;6.54;72.45
79127;BME280;68528;48.814;8.904;2023-04-08T19:19:01;97045.09;;;6.54;72.15
79127;BME280;68528;48.814;8.904;2023-04-08T19:21:27;97050.06;;;6.44;72.35
79127;BME280;68528;48.814;8.904;2023-04-08T19:23:55;97052.13;;;6.38;72.32
79127;BME280;68528;48.814;8.904;2023-04-08T19:26:23;97058.53;;;6.42;72.95
79127;BME280;68528;48.814;8.904;2023-04-08T19:35:19;97061.44;;;6.37;73.34
79127;BME280;68528;48.814;8.904;2023-04-08T19:37:45;97049.75;;;6.37;73.15
79127;BME280;68528;48.814;8.904;2023-04-08T19:40:12;97059.53;;;6.38;72.76
79127;BME280;68528;48.814;8.904;2023-04-08T19:42:37;97057.44;;;6.34;72.70
79127;BME280;68528;48.814;8.904;2023-04-08T19:45:03;97062.25;;;6.38;72.76
79127;BME280;68528;48.814;8.904;2023-04-08T19:54:18;97068.47;;;6.21;73.34
79127;BME280;68528;48.814;8.904;2023-04-08T19:56:43;97066.06;;;6.19;73.66
79127;BME280;68528;48.814;8.904;2023-04-08T19:59:09;97065.25;;;6.19;73.47
79127;BME280;68528;48.814;8.904;2023-04-08T20:01:36;97070.69;;;6.19;73.85
79127;BME280;68528;48.814;8.904;2023-04-08T20:04:03;97070.22;;;6.17;73.74
79127;BME280;68528;48.814;8.904;2023-04-08T20:06:30;97066.41;;;6.09;73.96
79127;BME280;68528;48.814;8.904;2023-04-08T20:10:06;97075.84;;;6.12;73.75
79127;BME280;68528;48.814;8.904;2023-04-08T20:12:31;97067.34;;;6.13;74.21
79127;BME280;68528;48.814;8.904;2023-04-08T20:14:57;97073.28;;;6.15;74.20
79127;BME280;68528;48.814;8.904;2023-04-08T20:17:22;97070.88;;;6.05;74.18
79127;BME280;68528;48.814;8.904;2023-04-08T20:19:48;97070.72;;;6.02;74.73
79127;BME280;68528;48.814;8.904;2023-04-08T20:22:13;97065.09;;;6.07;74.34
79127;BME280;68528;48.814;8.904;2023-04-08T20:25:16;97078.69;;;6.07;74.38
79127;BME280;68528;48.814;8.904;2023-04-08T20:28:30;97071.81;;;6.09;74.30
79127;BME280;68528;48.814;8.904;2023-04-08T20:31:16;97059.81;;;6.10;73.77
79127;BME280;68528;48.814;8.904;2023-04-08T20:33:43;97071.22;;;6.12;73.89
79127;BME280;68528;48.814;8.904;2023-04-08T20:36:12;97072.16;;;6.16;74.09
79127;BME280;68528;48.814;8.904;2023-04-08T20:38:38;97065.44;;;6.14;73.39
79127;BME280;68528;48.814;8.904;2023-04-08T20:41:05;97063.03;;;6.04;73.91
79127;BME280;68528;48.814;8.904;2023-04-08T20:43:53;97071.34;;;6.07;74.05
79127;BME280;68528;48.814;8.904;2023-04-08T20:47:01;97070.72;;;6.02;73.97
79127;BME280;68528;48.814;8.904;2023-04-08T20:49:26;97069.91;;;6.01;74.34
79127;BME280;68528;48.814;8.904;2023-04-08T20:51:52;97075.00;;;5.94;74.83
79127;BME280;68528;48.814;8.904;2023-04-08T20:54:17;97068.00;;;5.93;75.38
79127;BME280;68528;48.814;8.904;2023-04-08T20:56:43;97070.69;;;5.85;75.75
79127;BME280;68528;48.814;8.904;2023-04-08T20:59:18;97059.94;;;5.80;75.28
79127;BME280;68528;48.814;8.904;2023-04-08T21:02:08;97064.44;;;5.84;75.15
79127;BME280;68528;48.814;8.904;2023-04-08T21:04:51;97065.84;;;5.82;75.45
79127;BME280;68528;48.814;8.904;2023-04-08T21:11:14;97068.09;;;5.80;75.22
79127;BME280;68528;48.814;8.904;2023-04-08T21:13:40;97053.22;;;5.77;75.34
79127;BME280;68528;48.814;8.904;2023-04-08T21:16:06;97065.69;;;5.78;75.70
79127;BME280;68528;48.814;8.904;2023-04-08T21:18:31;97061.53;;;5.72;75.54
79127;BME280;68528;48.814;8.904;2023-04-08T21:30:45;97046.16;;;5.59;76.28
79127;BME280;68528;48.814;8.904;2023-04-08T21:33:14;97050.28;;;5.56;75.86
79127;BME280;68528;48.814;8.904;2023-04-08T21:35:41;97046.28;;;5.54;77.00
79127;BME280;68528;48.814;8.904;2023-04-08T21:38:41;97061.13;;;5.48;77.70
79127;BME280;68528;48.814;8.904;2023-04-08T23:19:50;97055.25;;;2.52;81.72
79127;BME280;68528;48.814;8.904;2023-04-08T23:22:16;97068.44;;;2.39;83.24
79127;BME280;68528;48.814;8.904;2023-04-08T23:24:51;97064.78;;;2.30;83.04
79127;BME280;68528;48.814;8.904;2023-04-08T23:28:00;97065.38;;;2.27;83.21